»·PEaware :: UAL1180 KPDX-KBOI

UAL1180 :: KPDX-KBOI

FLIGHT INFORMATION

Flight Status: Arrived
Operator:
United Airlines
More flights by this operator :: More flights under this callsign
Pilot: Dominic B. (18944)
Aircraft: BOEING 747-200
(B742)
More flights by this aircraft type
Origin: KPDX Portland Intl
United States
Destination: KBOI Boise Air Terminal/Gowen
United States
More flights between these airports :: More routes between these airports
Route: PTLD2 BTG J15 BOI
File this flight plan on PilotEdge
Remarks:
Altitude:
(Current/Filed)
31,000ft
Speed:
(Current/Filed)
500kts
Departed: 24-Aug-22 05:24 PM
Arrived: 24-Aug-22 06:22 PM
Distance/Time
Traveled:
298nm/0:58
Distance/Time
To Go:
Arrived

Flight Plot

Page will automatically refresh every two minutes.

Flight plan parsing failed; only flown route is shown


Map Options




Map Legend


Flown Route
Filed Route
Departure Airport
Arrival Airport
Navaid (VOR, NDB)
Fix

Horizontal Profiles

Position Reports

Time Latitude Longitude Heading Altitude Ground
Speed
24-Aug-22 16:57 45.589915 -122.590470 225 40ft 0kts
24-Aug-22 16:58 45.589915 -122.590470 225 39ft 0kts
24-Aug-22 16:59 45.589915 -122.590470 225 39ft 0kts
24-Aug-22 17:00 45.589915 -122.590470 225 39ft 0kts
24-Aug-22 17:01 45.589915 -122.590470 225 39ft 0kts
24-Aug-22 17:02 45.589915 -122.590470 225 39ft 0kts
24-Aug-22 17:03 45.589915 -122.590470 225 39ft 0kts
24-Aug-22 17:04 45.589915 -122.590470 225 39ft 0kts
24-Aug-22 17:05 45.589915 -122.590470 225 39ft 0kts
24-Aug-22 17:06 45.589915 -122.590470 225 39ft 0kts
24-Aug-22 17:07 45.589915 -122.590470 225 39ft 0kts
24-Aug-22 17:08 45.589915 -122.590470 225 39ft 0kts
24-Aug-22 17:09 45.589915 -122.590470 225 39ft 0kts
24-Aug-22 17:10 45.589915 -122.590470 225 39ft 0kts
24-Aug-22 17:11 45.589915 -122.590470 225 39ft 0kts
24-Aug-22 17:12 45.590055 -122.590317 204 40ft 2kts
24-Aug-22 17:13 45.590621 -122.590390 142 39ft 2kts
24-Aug-22 17:14 45.590838 -122.590847 121 39ft 2kts
24-Aug-22 17:15 45.590801 -122.590776 120 39ft 0kts
24-Aug-22 17:16 45.590801 -122.590776 120 39ft 0kts
24-Aug-22 17:17 45.590066 -122.586676 117 39ft 21kts
24-Aug-22 17:18 45.587764 -122.580765 119 39ft 19kts
24-Aug-22 17:19 45.584672 -122.572853 118 39ft 21kts
24-Aug-22 17:20 45.583022 -122.568513 118 39ft 0kts
24-Aug-22 17:21 45.583030 -122.567129 36 39ft 7kts
24-Aug-22 17:22 45.584166 -122.568352 301 39ft 40kts
24-Aug-22 17:23 45.603486 -122.619275 294 1458ft 186kts
24-Aug-22 17:24 45.623670 -122.691741 294 2779ft 217kts
24-Aug-22 17:25 45.650606 -122.778222 294 4264ft 261kts
24-Aug-22 17:26 45.709780 -122.822544 12 6405ft 271kts
24-Aug-22 17:27 45.764297 -122.755484 79 8614ft 288kts
24-Aug-22 17:28 45.740436 -122.644799 114 11021ft 310kts
24-Aug-22 17:29 45.702305 -122.524406 113 12844ft 355kts
24-Aug-22 17:30 45.630290 -122.422492 135 14678ft 389kts
24-Aug-22 17:31 45.549914 -122.308810 136 16379ft 424kts
24-Aug-22 17:32 45.465164 -122.189204 136 18918ft 435kts
24-Aug-22 17:33 45.378226 -122.066202 135 21124ft 451kts
24-Aug-22 17:34 45.287666 -121.938310 135 23274ft 467kts
24-Aug-22 17:35 45.194731 -121.807399 135 25824ft 476kts
24-Aug-22 17:36 45.123031 -121.649673 110 28036ft 489kts
24-Aug-22 17:37 45.074307 -121.467929 108 29880ft 502kts
24-Aug-22 17:38 45.026432 -121.278128 108 30918ft 525kts
24-Aug-22 17:39 44.977630 -121.080539 108 30960ft 542kts
24-Aug-22 17:40 44.929506 -120.878337 107 30951ft 541kts
24-Aug-22 17:41 44.882263 -120.676621 107 30943ft 543kts
24-Aug-22 17:42 44.834922 -120.474872 107 30943ft 543kts
24-Aug-22 17:43 44.787018 -120.274646 108 30950ft 543kts
24-Aug-22 17:44 44.737632 -120.072921 108 30968ft 543kts
24-Aug-22 17:45 44.688583 -119.872743 108 30974ft 544kts
24-Aug-22 17:46 44.637328 -119.672398 107 30968ft 543kts
24-Aug-22 17:47 44.595443 -119.468674 106 30963ft 544kts
24-Aug-22 17:48 44.550625 -119.265915 107 30968ft 544kts
24-Aug-22 17:49 44.505684 -119.064490 107 30974ft 544kts
24-Aug-22 17:50 44.460661 -118.861861 107 30975ft 544kts
24-Aug-22 17:51 44.414073 -118.660918 117 30964ft 541kts
24-Aug-22 17:52 44.332945 -118.484840 120 30979ft 541kts
24-Aug-22 17:53 44.266016 -118.299294 116 30041ft 516kts
24-Aug-22 17:54 44.210193 -118.123682 114 28852ft 480kts
24-Aug-22 17:55 44.154576 -117.957145 117 27670ft 473kts
24-Aug-22 17:56 44.097561 -117.793771 116 26480ft 464kts
24-Aug-22 17:57 44.041708 -117.629345 116 25304ft 504kts
24-Aug-22 17:58 43.982586 -117.452233 115 24119ft 501kts
24-Aug-22 17:59 43.924365 -117.277706 117 22928ft 493kts
24-Aug-22 18:00 43.866888 -117.107819 117 21743ft 484kts
24-Aug-22 18:01 43.810502 -116.940090 117 20553ft 474kts
24-Aug-22 18:02 43.755329 -116.776522 117 19368ft 467kts
24-Aug-22 18:03 43.700532 -116.615623 117 17981ft 460kts
24-Aug-22 18:04 43.645211 -116.459818 118 16149ft 436kts
24-Aug-22 18:05 43.594822 -116.321397 119 14386ft 371kts
24-Aug-22 18:06 43.554850 -116.203301 116 13101ft 320kts
24-Aug-22 18:07 43.504535 -116.106560 131 11807ft 309kts
24-Aug-22 18:08 43.454973 -116.021925 130 10517ft 260kts
24-Aug-22 18:09 43.412566 -115.949063 130 9244ft 223kts
24-Aug-22 18:10 43.375024 -115.884202 131 9109ft 216kts
24-Aug-22 18:11 43.341606 -115.816239 96 9103ft 221kts
24-Aug-22 18:12 43.377109 -115.753097 31 8916ft 219kts
24-Aug-22 18:13 43.428525 -115.764456 291 8004ft 208kts
24-Aug-22 18:14 43.445509 -115.838224 285 7604ft 204kts
24-Aug-22 18:15 43.461839 -115.913513 287 6541ft 198kts
24-Aug-22 18:16 43.481990 -115.984585 290 6283ft 199kts
24-Aug-22 18:17 43.502735 -116.054368 295 5854ft 183kts
24-Aug-22 18:18 43.524712 -116.111261 297 4525ft 165kts
24-Aug-22 18:19 43.543607 -116.165744 297 3515ft 156kts
24-Aug-22 18:20 43.561267 -116.217004 295 2882ft 126kts
24-Aug-22 18:21 43.566459 -116.230159 21 2881ft 10kts
24-Aug-22 18:22 43.567991 -116.226845 116 2882ft 20kts
24-Aug-22 18:23 43.566751 -116.220500 51 2882ft 8kts
24-Aug-22 18:24 43.567011 -116.220197 34 2881ft 0kts

Navigation Log

Ident Type
Flight plan parsing failed, navigation log unavailable